Time;durP1;ratioP1;P1;durP2;ratioP2;P2;SDS_P1;SDS_P2;PMS_P1;PMS_P2;Temp;Humidity;BMP_temperature;BMP_pressure;BME280_temperature;BME280_humidity;BME280_pressure;Samples;Min_cycle;Max_cycle;Signal;HPM_P1;HPM_P2
2022/11/24 00:01:51;;;;;;;12.77;6.77;;;;;;;;;;5051775;28;20198;-79
2022/11/24 00:04:18;;;;;;;10.10;6.27;;;;;;;;;;5051286;28;20703;-79
2022/11/24 00:06:45;;;;;;;8.03;6.23;;;;;;;;;;5058354;28;20234;-79
2022/11/24 00:09:13;;;;;;;8.10;7.27;;;;;;;;;;5058763;28;20640;-79
2022/11/24 00:11:40;;;;;;;12.07;8.07;;;;;;;;;;5056783;28;20209;-78
2022/11/24 00:14:07;;;;;;;12.80;7.87;;;;;;;;;;5060369;28;20216;-78
2022/11/24 00:16:36;;;;;;;12.37;9.40;;;;;;;;;;5064484;28;20670;-78
2022/11/24 00:19:05;;;;;;;13.57;8.13;;;;;;;;;;5050995;28;20212;-79
2022/11/24 00:21:32;;;;;;;17.63;9.23;;;;;;;;;;5051186;28;20221;-78
2022/11/24 00:23:59;;;;;;;17.00;9.33;;;;;;;;;;5059383;28;20213;-79
2022/11/24 00:26:28;;;;;;;13.43;9.07;;;;;;;;;;5054303;28;20201;-80
2022/11/24 00:28:57;;;;;;;14.80;9.73;;;;;;;;;;5050386;28;20210;-79
2022/11/24 00:31:25;;;;;;;14.80;10.17;;;;;;;;;;5050533;28;20202;-79
2022/11/24 00:33:53;;;;;;;18.00;10.17;;;;;;;;;;5051339;28;20206;-79
2022/11/24 00:36:22;;;;;;;15.07;9.70;;;;;;;;;;5063205;28;20274;-78
2022/11/24 00:38:53;;;;;;;15.77;10.20;;;;;;;;;;5066238;28;20204;-79
2022/11/24 00:41:20;;;;;;;14.43;9.73;;;;;;;;;;5058259;28;20193;-79
2022/11/24 00:43:48;;;;;;;14.17;8.87;;;;;;;;;;5057161;28;20198;-78
2022/11/24 00:46:14;;;;;;;12.47;9.70;;;;;;;;;;5064697;28;20202;-79
2022/11/24 00:48:41;;;;;;;13.37;9.73;;;;;;;;;;5051080;28;20212;-79
2022/11/24 00:51:10;;;;;;;11.80;9.70;;;;;;;;;;5050764;28;20197;-79
2022/11/24 00:53:36;;;;;;;12.87;8.53;;;;;;;;;;5051047;28;20589;-79
2022/11/24 00:56:03;;;;;;;11.40;8.63;;;;;;;;;;5053095;28;20229;-79
2022/11/24 00:58:30;;;;;;;13.90;9.80;;;;;;;;;;5061358;28;20683;-79
2022/11/24 01:01:04;;;;;;;17.13;10.80;;;;;;;;;;5051625;28;20225;-80
2022/11/24 01:03:30;;;;;;;12.60;9.90;;;;;;;;;;5061348;28;20254;-79
2022/11/24 01:06:02;;;;;;;13.13;8.63;;;;;;;;;;5067738;28;20259;-81
2022/11/24 01:08:28;;;;;;;13.03;8.97;;;;;;;;;;5057334;28;20615;-79
2022/11/24 01:11:05;;;;;;;14.37;9.77;;;;;;;;;;5057058;28;20206;-79
2022/11/24 01:13:32;;;;;;;13.13;9.03;;;;;;;;;;5050891;28;20588;-79
2022/11/24 01:15:59;;;;;;;10.03;8.07;;;;;;;;;;5062740;28;20224;-79
2022/11/24 01:18:27;;;;;;;13.90;9.33;;;;;;;;;;5051636;28;20198;-79
2022/11/24 01:20:54;;;;;;;12.10;8.57;;;;;;;;;;5061540;28;20689;-79
2022/11/24 01:23:21;;;;;;;13.67;9.23;;;;;;;;;;5052540;28;20277;-79
2022/11/24 01:25:47;;;;;;;12.73;9.20;;;;;;;;;;5050262;28;20198;-79
2022/11/24 01:28:14;;;;;;;12.10;9.27;;;;;;;;;;5050105;28;20217;-79
2022/11/24 01:30:41;;;;;;;13.80;8.53;;;;;;;;;;5057848;28;20201;-78
2022/11/24 01:33:08;;;;;;;11.27;8.57;;;;;;;;;;5070631;28;20232;-79
2022/11/24 01:35:36;;;;;;;11.03;8.33;;;;;;;;;;5049700;28;20248;-79
2022/11/24 01:38:03;;;;;;;13.13;9.13;;;;;;;;;;5058375;28;20599;-79
2022/11/24 01:40:30;;;;;;;12.33;9.37;;;;;;;;;;5056216;28;20206;-79
2022/11/24 01:42:56;;;;;;;11.00;8.53;;;;;;;;;;5063893;28;20209;-78
2022/11/24 01:45:35;;;;;;;13.47;9.13;;;;;;;;;;5049860;28;20210;-79
2022/11/24 01:48:05;;;;;;;13.43;9.57;;;;;;;;;;5050151;28;20225;-79
2022/11/24 01:50:32;;;;;;;9.17;8.00;;;;;;;;;;5049715;28;20333;-79
2022/11/24 01:53:01;;;;;;;11.20;9.57;;;;;;;;;;5062337;28;20256;-79
2022/11/24 01:55:30;;;;;;;10.60;8.50;;;;;;;;;;5061973;28;20662;-79
2022/11/24 01:58:01;;;;;;;9.17;8.17;;;;;;;;;;5051944;28;20639;-79
2022/11/24 02:00:28;;;;;;;9.33;8.27;;;;;;;;;;5050043;28;20256;-79
2022/11/24 02:02:55;;;;;;;9.97;8.97;;;;;;;;;;5063661;28;20198;-79
2022/11/24 02:05:23;;;;;;;10.93;8.33;;;;;;;;;;5050820;28;20208;-79
2022/11/24 02:07:52;;;;;;;10.50;7.60;;;;;;;;;;5062629;28;20202;-79
2022/11/24 02:10:22;;;;;;;9.80;8.13;;;;;;;;;;5050679;28;20199;-78
2022/11/24 02:12:52;;;;;;;8.27;7.30;;;;;;;;;;5063147;28;20568;-79
2022/11/24 02:15:20;;;;;;;10.40;8.23;;;;;;;;;;5050793;28;20226;-79
2022/11/24 02:17:47;;;;;;;14.83;8.93;;;;;;;;;;5050414;28;20213;-79
2022/11/24 02:20:15;;;;;;;11.13;8.90;;;;;;;;;;5063579;28;20202;-79
2022/11/24 02:22:46;;;;;;;10.50;8.37;;;;;;;;;;5049765;28;20225;-78
2022/11/24 02:25:18;;;;;;;9.70;8.07;;;;;;;;;;5053487;28;20201;-79
2022/11/24 02:27:46;;;;;;;9.13;8.23;;;;;;;;;;5059287;28;20202;-79
2022/11/24 02:30:13;;;;;;;10.20;9.03;;;;;;;;;;5049027;28;20201;-79
2022/11/24 02:32:42;;;;;;;12.93;8.47;;;;;;;;;;5049757;28;20664;-79
2022/11/24 02:35:10;;;;;;;10.33;7.80;;;;;;;;;;5051114;28;20198;-79
2022/11/24 02:37:37;;;;;;;10.67;9.03;;;;;;;;;;5066233;28;20208;-79
2022/11/24 02:40:04;;;;;;;10.27;8.53;;;;;;;;;;5070933;28;20197;-79
2022/11/24 02:42:34;;;;;;;9.73;8.43;;;;;;;;;;5056152;28;20201;-79
2022/11/24 02:45:02;;;;;;;11.43;8.17;;;;;;;;;;5057941;28;20224;-78
2022/11/24 02:47:29;;;;;;;13.40;8.50;;;;;;;;;;5064183;28;20202;-79
2022/11/24 02:49:55;;;;;;;10.80;8.13;;;;;;;;;;5072932;28;20220;-79
2022/11/24 02:52:22;;;;;;;10.50;8.10;;;;;;;;;;5065586;28;20213;-79
2022/11/24 02:54:49;;;;;;;10.27;8.60;;;;;;;;;;5053083;28;20206;-78
2022/11/24 02:57:15;;;;;;;8.80;7.47;;;;;;;;;;5052679;28;20232;-79
2022/11/24 02:59:42;;;;;;;8.30;7.43;;;;;;;;;;5052992;28;20213;-79
2022/11/24 03:02:10;;;;;;;10.53;6.77;;;;;;;;;;5066814;28;20202;-78
2022/11/24 03:04:37;;;;;;;8.40;7.27;;;;;;;;;;5052732;28;20206;-79
2022/11/24 03:07:04;;;;;;;11.33;8.27;;;;;;;;;;5052827;28;20255;-78
2022/11/24 03:09:31;;;;;;;7.73;7.00;;;;;;;;;;5052416;28;20235;-78
2022/11/24 03:11:58;;;;;;;10.87;8.07;;;;;;;;;;5052169;28;20290;-79
2022/11/24 03:14:24;;;;;;;11.10;7.93;;;;;;;;;;5052694;28;20201;-78
2022/11/24 03:16:51;;;;;;;8.30;7.37;;;;;;;;;;5052841;28;20900;-79
2022/11/24 03:19:19;;;;;;;10.00;7.87;;;;;;;;;;5052425;28;20209;-79
2022/11/24 03:21:46;;;;;;;9.80;7.97;;;;;;;;;;5052707;28;20289;-79
2022/11/24 03:24:13;;;;;;;8.60;7.70;;;;;;;;;;5052217;28;20217;-81
2022/11/24 03:26:40;;;;;;;6.73;6.03;;;;;;;;;;5061675;28;20710;-78
2022/11/24 03:29:07;;;;;;;8.43;7.17;;;;;;;;;;5056489;28;20201;-77
2022/11/24 03:31:34;;;;;;;9.03;6.87;;;;;;;;;;5052686;28;20198;-79
2022/11/24 03:34:01;;;;;;;7.30;6.57;;;;;;;;;;5072284;28;20201;-80
2022/11/24 03:36:29;;;;;;;7.50;6.73;;;;;;;;;;5051815;28;20222;-80
2022/11/24 03:38:56;;;;;;;8.60;6.83;;;;;;;;;;5065845;28;20205;-80
2022/11/24 03:41:22;;;;;;;8.07;6.67;;;;;;;;;;5052311;28;20194;-79
2022/11/24 03:43:49;;;;;;;7.33;6.60;;;;;;;;;;5052447;28;20209;-80
2022/11/24 03:46:16;;;;;;;7.73;6.67;;;;;;;;;;5051878;28;20194;-80
2022/11/24 03:48:43;;;;;;;8.27;6.50;;;;;;;;;;5052246;28;20205;-79
2022/11/24 03:51:10;;;;;;;8.47;6.67;;;;;;;;;;5051938;28;20205;-79
2022/11/24 03:53:38;;;;;;;8.40;7.40;;;;;;;;;;5051970;28;20286;-80
2022/11/24 03:56:05;;;;;;;8.00;6.40;;;;;;;;;;5051784;28;20244;-79
2022/11/24 03:58:32;;;;;;;6.93;6.23;;;;;;;;;;5051473;28;20225;-79
2022/11/24 04:00:59;;;;;;;7.67;6.93;;;;;;;;;;5051653;28;20202;-80
2022/11/24 04:03:26;;;;;;;8.27;7.17;;;;;;;;;;5051141;28;20198;-80
2022/11/24 04:05:53;;;;;;;7.20;6.27;;;;;;;;;;5050455;28;20263;-80
2022/11/24 04:08:20;;;;;;;6.63;5.53;;;;;;;;;;5051403;28;20208;-80
2022/11/24 04:10:51;;;;;;;6.87;5.47;;;;;;;;;;5051714;28;20206;-80
2022/11/24 04:13:20;;;;;;;7.30;6.47;;;;;;;;;;5051766;28;20202;-80
2022/11/24 04:15:49;;;;;;;7.53;6.77;;;;;;;;;;5051429;28;20268;-79
2022/11/24 04:18:16;;;;;;;6.33;5.53;;;;;;;;;;5051276;28;20202;-79
2022/11/24 04:20:43;;;;;;;7.67;6.70;;;;;;;;;;5050761;28;20787;-80
2022/11/24 04:23:10;;;;;;;6.87;6.17;;;;;;;;;;5051406;28;20336;-80
2022/11/24 04:25:38;;;;;;;8.10;6.80;;;;;;;;;;5051134;28;20209;-80
2022/11/24 04:28:06;;;;;;;7.70;6.63;;;;;;;;;;5051386;28;20213;-80
2022/11/24 04:30:33;;;;;;;8.10;7.10;;;;;;;;;;5051219;28;20197;-80
2022/11/24 04:33:00;;;;;;;8.87;7.20;;;;;;;;;;5051305;28;20218;-80
2022/11/24 04:35:27;;;;;;;9.53;7.60;;;;;;;;;;5050912;28;20205;-80
2022/11/24 04:37:53;;;;;;;8.10;7.20;;;;;;;;;;5058223;28;20231;-79
2022/11/24 04:40:20;;;;;;;7.73;6.80;;;;;;;;;;5058067;28;20212;-80
2022/11/24 04:42:53;;;;;;;8.83;7.03;;;;;;;;;;5050795;28;20323;-80
2022/11/24 04:45:21;;;;;;;9.10;7.87;;;;;;;;;;5051136;28;20629;-79
2022/11/24 04:47:48;;;;;;;9.17;7.87;;;;;;;;;;5054004;28;20641;-78
2022/11/24 04:50:16;;;;;;;9.70;8.00;;;;;;;;;;5062148;28;20210;-77
2022/11/24 04:52:43;;;;;;;11.23;7.47;;;;;;;;;;5054947;28;20212;-79
2022/11/24 04:55:10;;;;;;;8.70;7.70;;;;;;;;;;5050136;28;20289;-79
2022/11/24 04:57:37;;;;;;;8.47;7.50;;;;;;;;;;5050129;28;20230;-79
2022/11/24 05:00:05;;;;;;;8.73;7.57;;;;;;;;;;5050143;28;20248;-79
2022/11/24 05:02:35;;;;;;;9.87;7.93;;;;;;;;;;5049895;28;20213;-79
2022/11/24 05:05:01;;;;;;;10.33;7.27;;;;;;;;;;5050281;28;20194;-79
2022/11/24 05:07:28;;;;;;;9.63;7.83;;;;;;;;;;5050873;28;20201;-79
2022/11/24 05:12:39;;;;;;;9.60;8.60;;;;;;;;;;5066452;28;20247;-80
2022/11/24 05:15:07;;;;;;;11.90;10.43;;;;;;;;;;5050130;28;20202;-80
2022/11/24 05:17:37;;;;;;;10.17;8.70;;;;;;;;;;5064472;28;20232;-80
2022/11/24 05:20:05;;;;;;;10.00;8.87;;;;;;;;;;5059867;28;20201;-80
2022/11/24 05:22:33;;;;;;;8.60;7.70;;;;;;;;;;5056314;28;20193;-80
2022/11/24 05:25:00;;;;;;;7.70;6.90;;;;;;;;;;5059096;28;20205;-79
2022/11/24 05:27:27;;;;;;;8.20;6.60;;;;;;;;;;5050416;28;20205;-79
2022/11/24 05:29:54;;;;;;;5.63;4.87;;;;;;;;;;5066331;28;20208;-79
2022/11/24 05:32:21;;;;;;;8.60;6.10;;;;;;;;;;5062281;28;20233;-80
2022/11/24 05:34:49;;;;;;;8.77;6.53;;;;;;;;;;5049924;28;20197;-80
2022/11/24 05:37:16;;;;;;;6.07;4.93;;;;;;;;;;5051893;28;20229;-80
2022/11/24 05:39:43;;;;;;;6.47;5.67;;;;;;;;;;5061811;28;20213;-81
2022/11/24 05:44:54;;;;;;;5.90;5.10;;;;;;;;;;5059011;28;20230;-80
2022/11/24 05:47:21;;;;;;;7.77;5.67;;;;;;;;;;5048956;28;20208;-80
2022/11/24 05:49:49;;;;;;;12.60;10.27;;;;;;;;;;5048210;28;20275;-79
2022/11/24 05:52:16;;;;;;;10.43;9.33;;;;;;;;;;5048204;28;20201;-81
2022/11/24 05:54:43;;;;;;;6.03;5.43;;;;;;;;;;5047971;28;20680;-80
2022/11/24 05:57:10;;;;;;;6.57;5.30;;;;;;;;;;5048109;28;20253;-80
2022/11/24 05:59:37;;;;;;;5.50;5.00;;;;;;;;;;5048197;28;20569;-80
2022/11/24 06:02:04;;;;;;;8.63;5.80;;;;;;;;;;5049152;28;20204;-80
2022/11/24 06:04:31;;;;;;;12.43;10.37;;;;;;;;;;5050414;28;20202;-81
2022/11/24 06:06:59;;;;;;;9.93;8.93;;;;;;;;;;5058223;28;20200;-80
2022/11/24 06:09:27;;;;;;;8.50;7.13;;;;;;;;;;5069842;28;20226;-80
2022/11/24 06:11:53;;;;;;;11.47;10.33;;;;;;;;;;5063005;28;20229;-80
2022/11/24 06:14:20;;;;;;;10.93;9.80;;;;;;;;;;5050451;28;20256;-80
2022/11/24 06:16:47;;;;;;;9.63;8.63;;;;;;;;;;5058689;28;20229;-80
2022/11/24 06:19:14;;;;;;;12.10;9.73;;;;;;;;;;5062472;28;20209;-80
2022/11/24 06:21:40;;;;;;;10.07;8.77;;;;;;;;;;5053310;28;20264;-79
2022/11/24 06:24:09;;;;;;;8.43;6.93;;;;;;;;;;5053696;28;20201;-80
2022/11/24 06:26:36;;;;;;;8.80;6.97;;;;;;;;;;5053812;28;20209;-80
2022/11/24 06:29:02;;;;;;;6.60;6.00;;;;;;;;;;5053725;28;20691;-80
2022/11/24 06:31:29;;;;;;;7.73;6.97;;;;;;;;;;5067185;28;20209;-80
2022/11/24 06:33:56;;;;;;;6.00;5.47;;;;;;;;;;5053544;28;20791;-80
2022/11/24 06:36:24;;;;;;;9.13;6.20;;;;;;;;;;5053157;28;20213;-80
2022/11/24 06:38:51;;;;;;;7.53;6.63;;;;;;;;;;5067000;28;20591;-80
2022/11/24 06:41:19;;;;;;;9.30;7.53;;;;;;;;;;5053286;28;20198;-80
2022/11/24 06:43:46;;;;;;;7.23;6.40;;;;;;;;;;5053379;28;20284;-80
2022/11/24 06:46:13;;;;;;;8.23;6.63;;;;;;;;;;5067003;28;20711;-80
2022/11/24 06:48:40;;;;;;;7.47;6.60;;;;;;;;;;5053053;28;20209;-80
2022/11/24 06:51:09;;;;;;;8.77;7.30;;;;;;;;;;5059410;28;20668;-80
2022/11/24 06:53:37;;;;;;;8.70;7.83;;;;;;;;;;5053377;28;20263;-80
2022/11/24 06:56:05;;;;;;;10.00;7.90;;;;;;;;;;5053025;28;20233;-80
2022/11/24 06:58:34;;;;;;;8.07;7.27;;;;;;;;;;5052835;28;20228;-80
2022/11/24 07:01:01;;;;;;;8.60;7.80;;;;;;;;;;5052624;28;20288;-80
2022/11/24 07:03:28;;;;;;;6.97;5.90;;;;;;;;;;5060544;28;20197;-78
2022/11/24 07:05:58;;;;;;;6.10;5.50;;;;;;;;;;5059253;28;20206;-80
2022/11/24 07:08:25;;;;;;;5.90;5.33;;;;;;;;;;5053046;28;20194;-79
2022/11/24 07:10:52;;;;;;;8.43;5.43;;;;;;;;;;5052581;28;20597;-80
2022/11/24 07:13:19;;;;;;;5.47;4.93;;;;;;;;;;5057335;28;20201;-80
2022/11/24 07:15:48;;;;;;;7.13;6.43;;;;;;;;;;5061151;28;20210;-80
2022/11/24 07:18:15;;;;;;;7.77;6.23;;;;;;;;;;5052472;28;20222;-80
2022/11/24 07:20:42;;;;;;;6.27;5.50;;;;;;;;;;5061890;28;20702;-80
2022/11/24 07:23:11;;;;;;;5.80;5.10;;;;;;;;;;5058404;28;20202;-80
2022/11/24 07:25:38;;;;;;;6.97;6.17;;;;;;;;;;5063599;28;20210;-80
2022/11/24 07:28:05;;;;;;;6.03;4.70;;;;;;;;;;5052662;28;20203;-80
2022/11/24 07:30:32;;;;;;;5.47;4.80;;;;;;;;;;5052740;28;20271;-81
2022/11/24 07:33:01;;;;;;;9.43;5.17;;;;;;;;;;5052305;28;20229;-80
2022/11/24 07:35:28;;;;;;;6.33;4.87;;;;;;;;;;5052570;28;20652;-80
2022/11/24 07:37:55;;;;;;;7.10;4.93;;;;;;;;;;5059561;28;20236;-80
2022/11/24 07:40:22;;;;;;;6.10;5.23;;;;;;;;;;5058514;28;20243;-80
2022/11/24 07:42:49;;;;;;;5.20;4.70;;;;;;;;;;5051783;28;20586;-80
2022/11/24 07:45:16;;;;;;;5.00;4.43;;;;;;;;;;5052021;28;20684;-80
2022/11/24 07:47:43;;;;;;;4.30;3.90;;;;;;;;;;5051912;28;20194;-80
2022/11/24 07:50:12;;;;;;;5.27;4.60;;;;;;;;;;5052188;28;20205;-80
2022/11/24 07:52:39;;;;;;;4.67;4.13;;;;;;;;;;5052159;28;20236;-80
2022/11/24 07:55:07;;;;;;;5.30;4.80;;;;;;;;;;5051596;28;20304;-80
2022/11/24 07:57:34;;;;;;;6.23;5.00;;;;;;;;;;5052511;28;20225;-80
2022/11/24 08:00:01;;;;;;;5.53;4.43;;;;;;;;;;5064886;28;20202;-79
2022/11/24 08:02:28;;;;;;;6.37;4.90;;;;;;;;;;5052053;28;20217;-79
2022/11/24 08:04:55;;;;;;;10.73;6.60;;;;;;;;;;5051785;28;20198;-79
2022/11/24 08:07:23;;;;;;;5.77;4.93;;;;;;;;;;5051845;28;20205;-80
2022/11/24 08:09:51;;;;;;;7.23;4.70;;;;;;;;;;5051181;28;20205;-80
2022/11/24 08:12:20;;;;;;;6.53;5.37;;;;;;;;;;5051903;28;20206;-80
2022/11/24 08:14:48;;;;;;;5.93;5.10;;;;;;;;;;5051336;28;20209;-80
2022/11/24 08:17:15;;;;;;;5.90;4.30;;;;;;;;;;5051740;28;20744;-80
2022/11/24 08:19:42;;;;;;;6.50;4.90;;;;;;;;;;5051735;28;20205;-80
2022/11/24 08:22:08;;;;;;;5.30;4.67;;;;;;;;;;5051540;28;20587;-80
2022/11/24 08:24:37;;;;;;;5.03;4.37;;;;;;;;;;5064165;28;20622;-80
2022/11/24 08:27:04;;;;;;;6.07;5.07;;;;;;;;;;5051618;28;20201;-79
2022/11/24 08:29:31;;;;;;;5.33;4.33;;;;;;;;;;5051340;28;20592;-79
2022/11/24 08:31:58;;;;;;;4.83;4.33;;;;;;;;;;5055386;28;20227;-80
2022/11/24 08:34:25;;;;;;;4.83;4.37;;;;;;;;;;5061025;28;20215;-79
2022/11/24 08:36:52;;;;;;;5.97;4.93;;;;;;;;;;5050511;28;20206;-80
2022/11/24 08:39:19;;;;;;;6.07;4.30;;;;;;;;;;5064357;28;20675;-79
2022/11/24 08:41:47;;;;;;;10.13;5.10;;;;;;;;;;5051275;28;20224;-79
2022/11/24 08:44:17;;;;;;;3.70;3.37;;;;;;;;;;5051208;28;20296;-80
2022/11/24 08:46:44;;;;;;;4.20;3.47;;;;;;;;;;5050673;28;20255;-79
2022/11/24 08:49:12;;;;;;;3.67;3.37;;;;;;;;;;5050979;28;20626;-80
2022/11/24 08:51:39;;;;;;;3.73;2.90;;;;;;;;;;5050654;28;20572;-79
2022/11/24 08:54:06;;;;;;;5.20;3.63;;;;;;;;;;5050717;28;20224;-80
2022/11/24 08:56:33;;;;;;;3.50;3.20;;;;;;;;;;5051102;28;20198;-79
2022/11/24 08:59:02;;;;;;;3.60;3.30;;;;;;;;;;5050913;28;20226;-79
2022/11/24 09:01:29;;;;;;;5.10;3.30;;;;;;;;;;5064318;28;20198;-79
2022/11/24 09:03:56;;;;;;;3.23;2.93;;;;;;;;;;5050716;28;20205;-79
2022/11/24 09:06:25;;;;;;;4.10;3.70;;;;;;;;;;5050244;28;20198;-79
2022/11/24 09:08:54;;;;;;;3.33;3.03;;;;;;;;;;5061006;28;20208;-79
2022/11/24 09:11:21;;;;;;;4.43;3.80;;;;;;;;;;5053835;28;20229;-78
2022/11/24 09:13:48;;;;;;;3.03;2.83;;;;;;;;;;5050438;28;20258;-79
2022/11/24 09:16:18;;;;;;;3.83;2.90;;;;;;;;;;5050617;28;20210;-79
2022/11/24 09:18:46;;;;;;;3.53;3.23;;;;;;;;;;5050334;28;20612;-79
2022/11/24 09:21:14;;;;;;;4.43;4.00;;;;;;;;;;5050704;28;20216;-79
2022/11/24 09:23:41;;;;;;;3.70;3.37;;;;;;;;;;5050523;28;20677;-79
2022/11/24 09:26:10;;;;;;;5.13;3.10;;;;;;;;;;5050277;28;20204;-79
2022/11/24 09:28:37;;;;;;;3.87;3.27;;;;;;;;;;5050533;28;20201;-79
2022/11/24 09:31:05;;;;;;;3.97;3.47;;;;;;;;;;5050317;28;20209;-79
2022/11/24 09:33:34;;;;;;;4.30;3.33;;;;;;;;;;5050355;28;20233;-78
2022/11/24 09:36:01;;;;;;;3.23;2.90;;;;;;;;;;5050161;28;20203;-79
2022/11/24 09:38:28;;;;;;;5.23;3.53;;;;;;;;;;5062202;28;20260;-79
2022/11/24 09:40:55;;;;;;;5.10;3.77;;;;;;;;;;5055972;28;20204;-79
2022/11/24 09:43:26;;;;;;;3.03;2.83;;;;;;;;;;5060304;28;20202;-79
2022/11/24 09:46:00;;;;;;;3.43;3.13;;;;;;;;;;5049403;28;20210;-79
2022/11/24 09:48:28;;;;;;;2.40;2.23;;;;;;;;;;5060648;28;20594;-79
2022/11/24 09:50:57;;;;;;;3.07;2.40;;;;;;;;;;5060038;28;20697;-78
2022/11/24 09:53:29;;;;;;;3.00;2.60;;;;;;;;;;5065318;28;20215;-79
2022/11/24 09:55:59;;;;;;;6.33;4.53;;;;;;;;;;5055627;28;20208;-78
2022/11/24 09:58:37;;;;;;;3.73;2.40;;;;;;;;;;5066364;28;20225;-78
2022/11/24 10:01:07;;;;;;;3.63;2.80;;;;;;;;;;5054312;28;20207;-79
2022/11/24 10:03:37;;;;;;;4.67;3.67;;;;;;;;;;5054254;28;20583;-79
2022/11/24 10:06:18;;;;;;;2.43;2.23;;;;;;;;;;5053584;28;20205;-77
2022/11/24 10:08:58;;;;;;;4.17;2.70;;;;;;;;;;5053892;28;20202;-79
2022/11/24 10:11:38;;;;;;;3.63;2.43;;;;;;;;;;5053624;28;20288;-79
2022/11/24 10:14:22;;;;;;;5.57;3.50;;;;;;;;;;5054104;28;20207;-79
2022/11/24 10:16:53;;;;;;;2.80;2.60;;;;;;;;;;5067927;28;20222;-78
2022/11/24 10:19:30;;;;;;;5.40;2.47;;;;;;;;;;5053537;28;20230;-79
2022/11/24 10:22:09;;;;;;;2.47;2.07;;;;;;;;;;5067670;28;20203;-79
2022/11/24 10:25:03;;;;;;;4.73;2.60;;;;;;;;;;5053679;28;20205;-79
2022/11/24 10:27:34;;;;;;;2.47;2.27;;;;;;;;;;5051221;28;20207;-79
2022/11/24 10:30:01;;;;;;;2.67;2.47;;;;;;;;;;5067447;28;20662;-79
2022/11/24 10:32:32;;;;;;;2.77;2.57;;;;;;;;;;5053436;28;20235;-79
2022/11/24 10:35:00;;;;;;;6.20;2.53;;;;;;;;;;5053079;28;20208;-78
2022/11/24 10:37:34;;;;;;;3.03;2.70;;;;;;;;;;5057001;28;20213;-79
2022/11/24 10:40:05;;;;;;;2.63;2.20;;;;;;;;;;5062389;28;20675;-79
2022/11/24 10:42:35;;;;;;;3.60;3.33;;;;;;;;;;5053530;28;20210;-79
2022/11/24 10:45:04;;;;;;;2.37;2.10;;;;;;;;;;5053134;28;20203;-79
2022/11/24 10:47:31;;;;;;;2.60;2.40;;;;;;;;;;5053390;28;20677;-79
2022/11/24 10:50:01;;;;;;;2.70;2.43;;;;;;;;;;5053238;28;20205;-79
2022/11/24 10:52:31;;;;;;;2.83;2.63;;;;;;;;;;5052624;28;20708;-80
2022/11/24 10:55:02;;;;;;;5.80;4.37;;;;;;;;;;5053344;28;20210;-79
2022/11/24 10:57:31;;;;;;;3.80;2.40;;;;;;;;;;5052999;28;20202;-79
2022/11/24 10:59:58;;;;;;;3.33;3.03;;;;;;;;;;5052507;28;20259;-79
2022/11/24 11:02:36;;;;;;;3.40;3.10;;;;;;;;;;5052490;28;20206;-79
2022/11/24 11:05:31;;;;;;;2.73;2.53;;;;;;;;;;5052617;28;20198;-80
2022/11/24 11:08:18;;;;;;;21.60;13.17;;;;;;;;;;5053101;28;20209;-80
2022/11/24 11:10:46;;;;;;;21.80;14.07;;;;;;;;;;5064471;28;20201;-79
2022/11/24 11:13:25;;;;;;;4.87;4.10;;;;;;;;;;5054551;28;20201;-80
2022/11/24 11:15:52;;;;;;;4.93;4.20;;;;;;;;;;5052539;28;20212;-79
2022/11/24 11:18:20;;;;;;;4.73;3.23;;;;;;;;;;5052818;28;20298;-80
2022/11/24 11:20:52;;;;;;;5.03;3.27;;;;;;;;;;5052843;28;20202;-80
2022/11/24 11:23:25;;;;;;;3.77;3.30;;;;;;;;;;5055303;28;20205;-80
2022/11/24 11:26:29;;;;;;;3.37;2.97;;;;;;;;;;5062549;28;20288;-80
2022/11/24 11:29:02;;;;;;;4.37;3.00;;;;;;;;;;5052720;28;20231;-79
2022/11/24 11:31:30;;;;;;;5.40;3.63;;;;;;;;;;5052320;28;20206;-80
2022/11/24 11:34:02;;;;;;;3.17;2.87;;;;;;;;;;5058773;28;20230;-80
2022/11/24 11:36:30;;;;;;;4.37;3.00;;;;;;;;;;5058842;28;20211;-79
2022/11/24 11:38:57;;;;;;;3.20;2.83;;;;;;;;;;5080618;28;20228;-79
2022/11/24 11:41:28;;;;;;;3.23;2.93;;;;;;;;;;5052329;28;20210;-79
2022/11/24 11:44:05;;;;;;;2.97;2.73;;;;;;;;;;5052850;28;20214;-79
2022/11/24 11:46:33;;;;;;;3.47;2.90;;;;;;;;;;5063946;28;20201;-79
2022/11/24 11:49:00;;;;;;;3.07;2.87;;;;;;;;;;5066005;28;20659;-80
2022/11/24 11:51:38;;;;;;;3.30;3.00;;;;;;;;;;5051770;28;20202;-80
2022/11/24 11:54:12;;;;;;;4.70;3.57;;;;;;;;;;5052263;28;20699;-80
2022/11/24 11:56:44;;;;;;;5.80;3.30;;;;;;;;;;5052187;28;20598;-79
2022/11/24 11:59:28;;;;;;;3.67;3.30;;;;;;;;;;5051475;28;20316;-81
2022/11/24 12:02:16;;;;;;;4.60;3.67;;;;;;;;;;5051655;28;20204;-79
2022/11/24 12:04:47;;;;;;;4.53;2.80;;;;;;;;;;5051739;28;20213;-80
2022/11/24 12:07:36;;;;;;;3.87;3.47;;;;;;;;;;5051859;28;20263;-79
2022/11/24 12:10:09;;;;;;;3.23;2.97;;;;;;;;;;5065674;28;20305;-80
2022/11/24 12:13:23;;;;;;;3.63;3.30;;;;;;;;;;5050815;28;20214;-79
2022/11/24 12:15:51;;;;;;;3.17;2.97;;;;;;;;;;5029169;28;20203;-80
2022/11/24 12:18:28;;;;;;;3.87;3.57;;;;;;;;;;5029342;28;20246;-79
2022/11/24 12:21:03;;;;;;;4.37;3.77;;;;;;;;;;5042939;28;20225;-79
2022/11/24 12:23:41;;;;;;;4.13;3.73;;;;;;;;;;5051215;28;20197;-80
2022/11/24 12:26:15;;;;;;;5.40;3.87;;;;;;;;;;5051605;28;20202;-79
2022/11/24 12:28:48;;;;;;;3.70;3.40;;;;;;;;;;5056591;28;20216;-80
2022/11/24 12:31:22;;;;;;;3.60;3.30;;;;;;;;;;5058856;28;20202;-79
2022/11/24 12:34:11;;;;;;;4.17;3.77;;;;;;;;;;5065413;28;20201;-79
2022/11/24 12:36:51;;;;;;;10.40;3.70;;;;;;;;;;5051144;28;20206;-80
2022/11/24 12:39:24;;;;;;;4.53;3.93;;;;;;;;;;5064913;28;20226;-80
2022/11/24 12:42:04;;;;;;;7.30;6.27;;;;;;;;;;5050953;28;20210;-79
2022/11/24 12:44:58;;;;;;;12.77;9.07;;;;;;;;;;5050842;28;20301;-80
2022/11/24 12:47:39;;;;;;;5.50;4.90;;;;;;;;;;5060102;28;20216;-79
2022/11/24 12:50:10;;;;;;;4.27;3.87;;;;;;;;;;5059974;28;20216;-79
2022/11/24 12:52:40;;;;;;;4.43;4.03;;;;;;;;;;5047851;28;20718;-79
2022/11/24 12:55:15;;;;;;;4.33;3.93;;;;;;;;;;5061864;28;20293;-80
2022/11/24 12:57:45;;;;;;;3.50;3.20;;;;;;;;;;5050887;28;20694;-80
2022/11/24 13:00:19;;;;;;;4.47;4.07;;;;;;;;;;5050861;28;20590;-80
2022/11/24 13:02:58;;;;;;;4.33;3.83;;;;;;;;;;5050821;28;20232;-79
2022/11/24 13:05:30;;;;;;;4.47;3.93;;;;;;;;;;5050621;28;20202;-79
2022/11/24 13:07:58;;;;;;;5.37;4.57;;;;;;;;;;5064470;28;20677;-79
2022/11/24 13:10:44;;;;;;;3.93;3.57;;;;;;;;;;5050960;28;20202;-79
2022/11/24 13:13:12;;;;;;;4.63;4.20;;;;;;;;;;5064660;28;20219;-79
2022/11/24 13:16:11;;;;;;;5.23;4.20;;;;;;;;;;5050999;28;20206;-79
2022/11/24 13:18:54;;;;;;;5.13;4.50;;;;;;;;;;5046120;28;20329;-79
2022/11/24 13:21:49;;;;;;;18.43;9.60;;;;;;;;;;5064572;28;20205;-79
2022/11/24 13:24:24;;;;;;;20.00;9.77;;;;;;;;;;5049987;28;20289;-79
2022/11/24 13:26:53;;;;;;;13.80;7.13;;;;;;;;;;5049742;28;20711;-79
2022/11/24 13:29:32;;;;;;;8.80;7.20;;;;;;;;;;5050377;28;20205;-79
2022/11/24 13:32:47;;;;;;;5.27;4.77;;;;;;;;;;5050212;28;20232;-79
2022/11/24 13:35:16;;;;;;;6.60;6.00;;;;;;;;;;5004921;28;20740;-80
2022/11/24 13:37:50;;;;;;;5.63;4.60;;;;;;;;;;5008430;28;20250;-80
2022/11/24 13:40:39;;;;;;;7.13;6.03;;;;;;;;;;5039256;28;20677;-79
2022/11/24 13:43:23;;;;;;;6.53;5.43;;;;;;;;;;5062521;28;20202;-80
2022/11/24 13:45:51;;;;;;;10.57;8.30;;;;;;;;;;5049798;28;20309;-80
2022/11/24 13:48:53;;;;;;;8.10;3.83;;;;;;;;;;5050220;28;20220;-80
2022/11/24 13:51:24;;;;;;;5.63;4.23;;;;;;;;;;5050177;28;20757;-79
2022/11/24 13:53:51;;;;;;;5.07;3.87;;;;;;;;;;5049865;28;20265;-79
2022/11/24 13:56:30;;;;;;;23.20;14.07;;;;;;;;;;5049771;28;20209;-79
2022/11/24 13:58:58;;;;;;;22.80;14.63;;;;;;;;;;5050242;28;20225;-79
2022/11/24 14:01:28;;;;;;;10.83;8.07;;;;;;;;;;5050129;28;20202;-79
2022/11/24 14:04:05;;;;;;;8.57;6.77;;;;;;;;;;5049757;28;20237;-79
2022/11/24 14:06:36;;;;;;;4.13;3.73;;;;;;;;;;5049423;28;20208;-79
2022/11/24 14:09:15;;;;;;;4.07;3.37;;;;;;;;;;5050196;28;20255;-79
2022/11/24 14:11:42;;;;;;;6.67;3.40;;;;;;;;;;5049965;28;20209;-79
2022/11/24 14:14:13;;;;;;;5.13;3.80;;;;;;;;;;5049930;28;20202;-80
2022/11/24 14:16:39;;;;;;;7.07;4.60;;;;;;;;;;5049768;28;20289;-80
2022/11/24 14:19:09;;;;;;;3.70;3.30;;;;;;;;;;5049723;28;20252;-79
2022/11/24 14:21:39;;;;;;;4.50;3.80;;;;;;;;;;5049738;28;20213;-80
2022/11/24 14:24:11;;;;;;;16.57;13.13;;;;;;;;;;5059186;28;20692;-80
2022/11/24 14:26:39;;;;;;;16.07;12.07;;;;;;;;;;5053506;28;20212;-79
2022/11/24 14:29:13;;;;;;;8.03;5.60;;;;;;;;;;5049684;28;20663;-80
2022/11/24 14:31:40;;;;;;;3.03;2.70;;;;;;;;;;5049567;28;20213;-79
2022/11/24 14:34:14;;;;;;;3.53;3.20;;;;;;;;;;5049971;28;20213;-80
2022/11/24 14:36:43;;;;;;;7.97;4.83;;;;;;;;;;5052467;28;20238;-80
2022/11/24 14:39:12;;;;;;;4.03;3.63;;;;;;;;;;5069971;28;20222;-79
2022/11/24 14:41:39;;;;;;;6.83;3.10;;;;;;;;;;5053303;28;20202;-79
2022/11/24 14:44:12;;;;;;;5.87;5.37;;;;;;;;;;5053240;28;20252;-79
2022/11/24 14:46:39;;;;;;;6.00;5.33;;;;;;;;;;5053247;28;20707;-79
2022/11/24 14:49:06;;;;;;;9.10;5.50;;;;;;;;;;5066996;28;20213;-80
2022/11/24 14:51:35;;;;;;;8.80;6.47;;;;;;;;;;5053224;28;20198;-79
2022/11/24 14:54:05;;;;;;;3.90;3.47;;;;;;;;;;5053340;28;20205;-79
2022/11/24 14:56:35;;;;;;;4.77;3.60;;;;;;;;;;5052641;28;20205;-79
2022/11/24 14:59:02;;;;;;;7.53;4.57;;;;;;;;;;5052816;28;20241;-79
2022/11/24 15:01:31;;;;;;;7.23;5.30;;;;;;;;;;5057897;28;20593;-79